createdAt,value
2022-11-15T00:02:55.324Z,93684.45
2022-11-15T00:08:02.473Z,93687.20
2022-11-15T00:13:14.594Z,93680.33
2022-11-15T00:18:22.493Z,93683.55
2022-11-15T00:23:29.697Z,93690.67
2022-11-15T00:28:39.592Z,93685.21
2022-11-15T00:33:47.495Z,93669.14
2022-11-15T00:38:54.596Z,93676.71
2022-11-15T00:44:01.360Z,93663.25
2022-11-15T00:49:08.558Z,93659.94
2022-11-15T00:54:15.397Z,93652.84
2022-11-15T00:59:22.434Z,93646.93
2022-11-15T01:04:29.277Z,93638.94
2022-11-15T01:09:36.362Z,93638.81
2022-11-15T01:14:46.749Z,93637.59
2022-11-15T01:19:54.186Z,93629.70
2022-11-15T01:25:01.050Z,93625.67
2022-11-15T01:30:09.531Z,93628.72
2022-11-15T01:35:16.302Z,93625.89
2022-11-15T01:40:23.076Z,93627.69
2022-11-15T01:45:30.334Z,93626.02
2022-11-15T01:50:37.210Z,93620.84
2022-11-15T01:55:47.205Z,93625.61
2022-11-15T02:00:54.909Z,93625.25
2022-11-15T02:06:02.575Z,93616.91
2022-11-15T02:11:11.631Z,93611.50
2022-11-15T02:16:31.414Z,93596.42
2022-11-15T02:21:45.575Z,93595.66
2022-11-15T02:27:17.525Z,93594.34
2022-11-15T02:32:40.445Z,93594.91
2022-11-15T02:37:59.667Z,93587.70
2022-11-15T02:43:33.862Z,93580.92
2022-11-15T02:48:40.925Z,93577.64
2022-11-15T02:53:47.646Z,93577.15
2022-11-15T02:59:30.495Z,93573.67
2022-11-15T03:05:01.273Z,93576.09
2022-11-15T03:10:15.007Z,93572.41
2022-11-15T03:15:26.379Z,93560.52
2022-11-15T03:20:34.262Z,93555.13
2022-11-15T03:25:44.293Z,93552.17
2022-11-15T03:30:52.924Z,93552.82
2022-11-15T03:35:59.776Z,93543.39
2022-11-15T03:41:25.833Z,93538.06
2022-11-15T03:46:39.687Z,93541.64
2022-11-15T03:51:49.041Z,93545.89
2022-11-15T03:56:54.827Z,93538.23
2022-11-15T04:02:01.649Z,93536.09
2022-11-15T04:07:08.580Z,93534.12
2022-11-15T04:12:17.081Z,93534.02
2022-11-15T04:17:25.602Z,93525.83
2022-11-15T04:22:50.210Z,93519.97
2022-11-15T04:27:58.806Z,93517.06
2022-11-15T04:33:05.603Z,93512.67
2022-11-15T04:38:13.770Z,93506.00
2022-11-15T04:43:20.588Z,93503.61
2022-11-15T04:48:27.281Z,93503.68
2022-11-15T04:53:35.484Z,93492.60
2022-11-15T04:58:44.322Z,93488.39
2022-11-15T05:04:08.675Z,93489.96
2022-11-15T05:09:15.205Z,93479.94
2022-11-15T05:14:24.102Z,93473.15
2022-11-15T05:19:31.170Z,93469.02
2022-11-15T05:24:40.975Z,93467.41
2022-11-15T05:29:47.857Z,93458.38
2022-11-15T05:34:55.744Z,93454.11
2022-11-15T05:40:06.364Z,93441.20
2022-11-15T05:45:13.163Z,93438.30
2022-11-15T05:50:23.469Z,93441.36
2022-11-15T05:55:30.336Z,93443.23
2022-11-15T06:00:37.318Z,93444.55
2022-11-15T06:05:44.260Z,93452.45
2022-11-15T06:10:52.329Z,93458.00
2022-11-15T06:16:01.925Z,93457.05
2022-11-15T06:21:09.010Z,93453.95
2022-11-15T06:26:15.644Z,93458.70
2022-11-15T06:31:22.386Z,93461.09
2022-11-15T06:36:30.650Z,93459.31
2022-11-15T06:41:39.860Z,93457.80
2022-11-15T06:46:57.939Z,93470.53
2022-11-15T06:52:04.818Z,93477.97
2022-11-15T06:57:11.690Z,93483.86
2022-11-15T07:02:20.066Z,93479.12
2022-11-15T07:07:27.244Z,93487.81
2022-11-15T07:12:34.376Z,93496.00
2022-11-15T07:17:41.383Z,93497.06
2022-11-15T07:22:51.490Z,93496.42
2022-11-15T07:28:00.531Z,93497.92
2022-11-15T07:33:08.958Z,93491.48
2022-11-15T07:38:17.392Z,93492.42
2022-11-15T07:43:24.584Z,93485.76
2022-11-15T07:48:42.733Z,93474.73
2022-11-15T07:53:41.420Z,93470.41
2022-11-15T07:58:49.930Z,93468.59
2022-11-15T08:03:56.609Z,93476.72
2022-11-15T08:09:05.483Z,93468.55
2022-11-15T08:14:12.424Z,93463.43
2022-11-15T08:19:23.735Z,93459.86
2022-11-15T08:24:30.503Z,93454.37
2022-11-15T08:29:37.292Z,93446.83
2022-11-15T08:34:44.186Z,93440.92
2022-11-15T08:39:52.688Z,93441.44
2022-11-15T08:44:59.553Z,93431.99
2022-11-15T08:50:06.991Z,93431.14
2022-11-15T08:55:13.703Z,93442.62
2022-11-15T09:00:21.448Z,93430.45
2022-11-15T09:05:28.967Z,93430.82
2022-11-15T09:10:35.776Z,93431.80
2022-11-15T09:15:46.835Z,93425.44
2022-11-15T09:20:55.901Z,93419.27
2022-11-15T09:26:06.171Z,93418.30
2022-11-15T09:31:18.006Z,93420.46
2022-11-15T09:36:25.019Z,93409.42
2022-11-15T09:42:02.625Z,93409.47
2022-11-15T09:47:36.379Z,93401.13
2022-11-15T09:52:46.854Z,93394.43
2022-11-15T09:58:31.758Z,93388.92
2022-11-15T10:03:42.782Z,93374.97
2022-11-15T10:09:05.564Z,93363.96
2022-11-15T10:14:19.616Z,93356.79
2022-11-15T10:19:28.204Z,93352.03
2022-11-15T10:24:39.309Z,93345.95
2022-11-15T10:29:52.358Z,93332.98
2022-11-15T10:35:00.273Z,93330.34
2022-11-15T10:40:22.898Z,93319.23
2022-11-15T10:45:33.714Z,93302.84
2022-11-15T10:50:42.828Z,93292.26
2022-11-15T10:55:56.745Z,93285.67
2022-11-15T11:01:20.243Z,93280.83
2022-11-15T11:06:31.075Z,93272.05
2022-11-15T11:11:53.627Z,93265.67
2022-11-15T11:17:33.503Z,93258.33
2022-11-15T11:23:22.366Z,93243.38
2022-11-15T11:28:59.265Z,93237.20
2022-11-15T11:34:41.929Z,93220.31
2022-11-15T11:40:35.328Z,93207.48
2022-11-15T11:46:01.618Z,93202.28
2022-11-15T11:51:27.381Z,93196.63
2022-11-15T11:56:37.700Z,93187.50
2022-11-15T12:01:48.980Z,93183.47
2022-11-15T12:07:12.710Z,93168.88
2022-11-15T12:12:29.776Z,93158.97
2022-11-15T12:17:37.050Z,93155.01
2022-11-15T12:23:06.286Z,93147.38
2022-11-15T12:28:33.887Z,93140.32
2022-11-15T12:33:51.955Z,93141.51
2022-11-15T12:39:10.498Z,93138.88
2022-11-15T12:44:37.226Z,93137.42
2022-11-15T12:49:48.434Z,93130.23
2022-11-15T12:55:01.908Z,93126.31
2022-11-15T13:00:37.225Z,93123.69
2022-11-15T13:05:50.225Z,93114.68
2022-11-15T13:10:57.262Z,93114.83
2022-11-15T13:16:05.277Z,93105.41
2022-11-15T13:21:44.975Z,93108.27
2022-11-15T13:26:54.740Z,93096.63
2022-11-15T13:32:02.052Z,93091.11
2022-11-15T13:37:28.531Z,93086.91
2022-11-15T13:42:35.473Z,93089.36
2022-11-15T13:47:42.608Z,93082.23
2022-11-15T13:52:51.210Z,93076.67
2022-11-15T13:58:03.014Z,93082.12
2022-11-15T14:03:31.770Z,93081.09
2022-11-15T14:08:41.002Z,93086.98
2022-11-15T14:14:14.170Z,93085.12
2022-11-15T14:19:30.918Z,93071.94
2022-11-15T14:24:40.050Z,93068.48
2022-11-15T14:29:50.080Z,93062.16
2022-11-15T14:35:05.955Z,93055.59
2022-11-15T14:40:19.988Z,93057.69
2022-11-15T14:45:25.500Z,93053.98
2022-11-15T14:50:32.720Z,93045.27
2022-11-15T14:55:40.029Z,93053.22
2022-11-15T15:00:47.540Z,93054.01
2022-11-15T15:05:54.404Z,93036.81
2022-11-15T15:11:06.046Z,93035.50
2022-11-15T15:16:12.017Z,93030.20
2022-11-15T15:21:36.752Z,93020.69
2022-11-15T15:26:42.247Z,93019.42
2022-11-15T15:31:50.476Z,93014.94
2022-11-15T15:37:26.732Z,93007.83
2022-11-15T15:42:34.742Z,93003.34
2022-11-15T15:47:42.147Z,93002.00
2022-11-15T15:52:52.360Z,92994.64
2022-11-15T15:57:59.315Z,92990.14
2022-11-15T16:03:07.518Z,92992.02
2022-11-15T16:08:28.566Z,92994.63
2022-11-15T16:13:38.000Z,92984.86
2022-11-15T16:18:45.125Z,92986.39
2022-11-15T16:23:52.757Z,92989.34
2022-11-15T16:29:01.266Z,92979.80
2022-11-15T16:34:08.410Z,92976.17
2022-11-15T16:39:17.785Z,92969.00
2022-11-15T16:44:28.670Z,92967.73
2022-11-15T16:49:34.152Z,92962.61
2022-11-15T16:54:42.735Z,92959.02
2022-11-15T16:59:49.989Z,92947.94
2022-11-15T17:04:56.828Z,92951.89
2022-11-15T17:10:07.729Z,92939.20
2022-11-15T17:15:15.735Z,92935.74
2022-11-15T17:20:25.864Z,92927.87
2022-11-15T17:25:32.919Z,92927.87
2022-11-15T17:30:44.224Z,92923.92
2022-11-15T17:35:58.361Z,92924.16
2022-11-15T17:41:17.195Z,92916.80
2022-11-15T17:46:23.987Z,92911.48
2022-11-15T17:51:30.775Z,92917.34
2022-11-15T17:56:41.250Z,92906.81
2022-11-15T18:01:48.318Z,92903.93
2022-11-15T18:06:55.781Z,92901.02
2022-11-15T18:12:02.571Z,92893.88
2022-11-15T18:17:10.816Z,92895.16
2022-11-15T18:22:20.985Z,92890.70
2022-11-15T18:27:27.683Z,92884.87
2022-11-15T18:32:34.419Z,92894.09
2022-11-15T18:37:41.310Z,92885.16
2022-11-15T18:42:48.055Z,92888.28
2022-11-15T18:47:55.048Z,92883.50
2022-11-15T18:53:03.074Z,92882.27
2022-11-15T18:58:13.572Z,92876.19
2022-11-15T19:03:23.564Z,92873.05
2022-11-15T19:08:34.273Z,92874.91
2022-11-15T19:13:39.186Z,92860.66
2022-11-15T19:18:46.199Z,92856.19
2022-11-15T19:23:54.528Z,92855.88
2022-11-15T19:29:03.379Z,92842.45
2022-11-15T19:34:10.870Z,92843.25
2022-11-15T19:39:18.805Z,92841.69
2022-11-15T19:44:27.595Z,92839.56
2022-11-15T19:49:34.527Z,92839.74
2022-11-15T19:54:41.306Z,92835.38
2022-11-15T19:59:48.449Z,92833.23
2022-11-15T20:04:57.615Z,92836.91
2022-11-15T20:10:04.520Z,92829.55
2022-11-15T20:15:13.539Z,92830.36
2022-11-15T20:20:20.759Z,92832.45
2022-11-15T20:25:27.623Z,92823.20
2022-11-15T20:30:36.207Z,92823.97
2022-11-15T20:35:44.367Z,92819.81
2022-11-15T20:40:57.426Z,92813.98
2022-11-15T20:46:01.326Z,92800.52
2022-11-15T20:51:16.767Z,92801.84
2022-11-15T20:56:24.394Z,92809.27
2022-11-15T21:01:32.260Z,92800.30
2022-11-15T21:06:41.413Z,92797.14
2022-11-15T21:12:05.243Z,92797.91
2022-11-15T21:17:12.027Z,92788.43
2022-11-15T21:22:18.763Z,92789.78
2022-11-15T21:27:25.405Z,92791.61
2022-11-15T21:32:32.985Z,92783.17
2022-11-15T21:37:39.861Z,92775.82
2022-11-15T21:42:48.300Z,92760.25
2022-11-15T21:47:55.017Z,92758.43
2022-11-15T21:53:02.864Z,92761.83
2022-11-15T21:58:12.664Z,92749.95
2022-11-15T22:03:22.355Z,92746.77
2022-11-15T22:08:32.932Z,92744.34
2022-11-15T22:13:41.650Z,92739.61
2022-11-15T22:18:48.892Z,92742.54
2022-11-15T22:24:00.008Z,92734.92
2022-11-15T22:29:10.042Z,92726.74
2022-11-15T22:34:18.358Z,92722.37
2022-11-15T22:39:25.228Z,92715.51
2022-11-15T22:44:37.063Z,92701.95
2022-11-15T22:49:42.272Z,92698.84
2022-11-15T22:54:49.496Z,92691.71
2022-11-15T22:59:56.660Z,92681.39
2022-11-15T23:10:17.642Z,92682.86
2022-11-15T23:15:28.346Z,92666.30
2022-11-15T23:20:43.146Z,92660.24
2022-11-15T23:25:41.479Z,92656.70
2022-11-15T23:31:05.789Z,92648.89
2022-11-15T23:36:12.856Z,92650.41
2022-11-15T23:41:19.695Z,92653.06
2022-11-15T23:46:26.813Z,92641.77
2022-11-15T23:51:33.617Z,92635.92
2022-11-15T23:56:41.614Z,92636.22
